createdAt,value
2022-11-26T00:01:17.728Z,8.60
2022-11-26T00:05:00.065Z,8.60
2022-11-26T00:08:41.831Z,8.60
2022-11-26T00:12:26.807Z,8.60
2022-11-26T00:16:12.717Z,8.60
2022-11-26T00:19:54.519Z,8.60
2022-11-26T00:23:36.303Z,8.60
2022-11-26T00:27:18.255Z,8.60
2022-11-26T00:31:06.361Z,8.60
2022-11-26T00:34:48.347Z,8.60
2022-11-26T00:38:31.170Z,8.60
2022-11-26T00:42:13.238Z,8.60
2022-11-26T00:45:54.992Z,8.60
2022-11-26T00:49:36.933Z,8.50
2022-11-26T00:53:22.576Z,8.50
2022-11-26T00:57:04.336Z,8.50
2022-11-26T01:00:46.151Z,8.50
2022-11-26T01:04:27.926Z,8.40
2022-11-26T01:08:35.820Z,8.40
2022-11-26T01:12:17.547Z,8.40
2022-11-26T01:16:02.677Z,8.40
2022-11-26T01:19:44.574Z,8.40
2022-11-26T01:23:26.279Z,8.30
2022-11-26T01:27:11.083Z,8.30
2022-11-26T01:30:52.848Z,8.30
2022-11-26T01:34:34.566Z,8.30
2022-11-26T01:38:16.514Z,8.20
2022-11-26T01:42:22.872Z,8.30
2022-11-26T01:46:18.691Z,8.20
2022-11-26T01:50:28.040Z,8.20
2022-11-26T01:54:10.615Z,8.10
2022-11-26T01:57:52.687Z,8.10
2022-11-26T02:01:34.943Z,8.10
2022-11-26T02:05:31.513Z,8.10
2022-11-26T02:09:14.205Z,8.10
2022-11-26T02:12:56.082Z,8.10
2022-11-26T02:16:47.006Z,8.10
2022-11-26T02:20:49.981Z,8.00
2022-11-26T02:25:17.067Z,8.00
2022-11-26T02:29:28.676Z,8.10
2022-11-26T02:33:14.278Z,8.10
2022-11-26T02:37:02.097Z,8.10
2022-11-26T02:40:43.959Z,8.10
2022-11-26T02:44:46.316Z,8.10
2022-11-26T02:48:34.228Z,8.20
2022-11-26T02:52:18.070Z,8.20
2022-11-26T02:56:07.968Z,8.30
2022-11-26T02:59:49.741Z,8.30
2022-11-26T03:03:39.441Z,8.30
2022-11-26T03:07:21.796Z,8.40
2022-11-26T03:11:04.233Z,8.40
2022-11-26T03:14:46.419Z,8.50
2022-11-26T03:18:28.305Z,8.50
2022-11-26T03:22:10.502Z,8.50
2022-11-26T03:25:52.228Z,8.60
2022-11-26T03:29:34.022Z,8.60
2022-11-26T03:33:15.783Z,8.60
2022-11-26T03:36:57.551Z,8.60
2022-11-26T03:40:39.341Z,8.60
2022-11-26T03:44:21.133Z,8.60
2022-11-26T03:48:02.882Z,8.60
2022-11-26T03:51:44.580Z,8.60
2022-11-26T03:55:26.305Z,8.60
2022-11-26T03:59:08.031Z,8.60
2022-11-26T04:02:49.800Z,8.60
2022-11-26T04:06:31.635Z,8.60
2022-11-26T04:10:13.328Z,8.60
2022-11-26T04:13:55.086Z,8.60
2022-11-26T04:17:36.897Z,8.60
2022-11-26T04:21:18.670Z,8.60
2022-11-26T04:25:00.447Z,8.60
2022-11-26T04:28:42.278Z,8.60
2022-11-26T04:32:24.006Z,8.70
2022-11-26T04:36:05.955Z,8.70
2022-11-26T04:39:47.660Z,8.80
2022-11-26T04:43:29.623Z,8.90
2022-11-26T04:47:11.375Z,8.90
2022-11-26T04:50:53.157Z,8.90
2022-11-26T04:54:34.963Z,8.80
2022-11-26T04:58:20.743Z,8.90
2022-11-26T05:02:02.532Z,8.90
2022-11-26T05:05:44.358Z,9.00
2022-11-26T05:09:26.074Z,9.00
2022-11-26T05:13:07.873Z,9.00
2022-11-26T05:16:49.632Z,8.90
2022-11-26T05:20:31.633Z,8.90
2022-11-26T05:24:13.453Z,8.80
2022-11-26T05:27:55.146Z,8.80
2022-11-26T05:31:37.093Z,8.80
2022-11-26T05:35:18.901Z,8.70
2022-11-26T05:39:00.698Z,8.70
2022-11-26T05:42:43.351Z,8.80
2022-11-26T05:46:25.160Z,8.80
2022-11-26T05:50:07.831Z,8.80
2022-11-26T05:53:49.526Z,8.80
2022-11-26T05:57:31.419Z,8.80
2022-11-26T06:01:13.681Z,8.80
2022-11-26T06:04:55.417Z,8.80
2022-11-26T06:08:37.466Z,8.70
2022-11-26T06:12:19.246Z,8.80
2022-11-26T06:16:00.945Z,8.80
2022-11-26T06:19:42.742Z,8.70
2022-11-26T06:23:24.459Z,8.60
2022-11-26T06:27:06.202Z,8.70
2022-11-26T06:30:47.970Z,8.70
2022-11-26T06:34:29.692Z,8.70
2022-11-26T06:38:11.530Z,8.70
2022-11-26T06:41:53.505Z,8.70
2022-11-26T06:45:35.625Z,8.70
2022-11-26T06:49:17.394Z,8.70
2022-11-26T06:52:59.137Z,8.70
2022-11-26T06:56:40.935Z,8.70
2022-11-26T07:00:22.833Z,8.70
2022-11-26T07:04:05.115Z,8.70
2022-11-26T07:07:46.986Z,8.70
2022-11-26T07:11:29.449Z,8.90
2022-11-26T07:15:11.662Z,9.00
2022-11-26T07:19:01.065Z,9.10
2022-11-26T07:22:44.412Z,9.20
2022-11-26T07:26:26.221Z,9.30
2022-11-26T07:30:08.722Z,9.20
2022-11-26T07:33:51.410Z,9.20
2022-11-26T07:37:34.237Z,9.30
2022-11-26T07:41:18.556Z,9.40
2022-11-26T07:45:00.314Z,9.30
2022-11-26T07:48:42.122Z,9.40
2022-11-26T07:52:24.078Z,9.40
2022-11-26T07:56:06.342Z,9.50
2022-11-26T07:59:48.097Z,9.50
2022-11-26T08:03:29.821Z,9.50
2022-11-26T08:07:16.101Z,9.60
2022-11-26T08:11:03.266Z,9.60
2022-11-26T08:14:44.995Z,9.60
2022-11-26T08:18:26.723Z,9.60
2022-11-26T08:22:08.493Z,9.60
2022-11-26T08:26:14.239Z,9.60
2022-11-26T08:29:52.356Z,9.70
2022-11-26T08:33:35.272Z,9.70
2022-11-26T08:37:16.989Z,9.70
2022-11-26T08:41:09.458Z,9.80
2022-11-26T08:44:51.787Z,9.80
2022-11-26T08:48:34.657Z,9.90
2022-11-26T08:52:16.519Z,9.90
2022-11-26T08:56:01.679Z,10.00
2022-11-26T08:59:43.417Z,10.10
2022-11-26T09:03:25.271Z,10.30
2022-11-26T09:07:08.237Z,10.30
2022-11-26T09:10:56.756Z,10.40
2022-11-26T09:14:40.440Z,10.50
2022-11-26T09:18:22.308Z,10.60
2022-11-26T09:22:04.438Z,10.70
2022-11-26T09:25:49.344Z,10.70
2022-11-26T09:29:31.079Z,10.70
2022-11-26T09:33:12.837Z,10.80
2022-11-26T09:36:54.694Z,10.90
2022-11-26T09:41:10.350Z,10.90
2022-11-26T09:45:13.665Z,11.00
2022-11-26T09:49:02.567Z,11.10
2022-11-26T09:53:03.155Z,11.20
2022-11-26T09:56:45.040Z,11.20
2022-11-26T10:00:31.443Z,11.30
2022-11-26T10:04:24.674Z,11.30
2022-11-26T10:08:54.837Z,11.50
2022-11-26T10:13:18.734Z,11.50
2022-11-26T10:17:25.582Z,11.60
2022-11-26T10:21:13.979Z,11.70
2022-11-26T10:24:58.689Z,11.70
2022-11-26T10:28:45.976Z,11.70
2022-11-26T10:32:35.101Z,11.70
2022-11-26T10:36:23.845Z,11.80
2022-11-26T10:40:25.992Z,11.90
2022-11-26T10:44:37.527Z,12.00
2022-11-26T10:48:34.398Z,12.10
2022-11-26T10:52:19.429Z,12.20
2022-11-26T10:56:05.245Z,12.30
2022-11-26T10:59:52.842Z,12.40
2022-11-26T11:07:43.965Z,12.40
2022-11-26T11:11:28.836Z,12.40
2022-11-26T11:15:31.516Z,12.50
2022-11-26T11:19:25.542Z,12.50
2022-11-26T11:23:19.139Z,12.50
2022-11-26T11:27:01.275Z,12.60
2022-11-26T11:30:44.360Z,12.70
2022-11-26T11:34:39.155Z,12.70
2022-11-26T11:38:27.904Z,12.80
2022-11-26T11:42:28.141Z,12.80
2022-11-26T11:46:39.277Z,12.90
2022-11-26T11:50:26.498Z,12.90
2022-11-26T11:54:13.865Z,12.90
2022-11-26T11:58:20.085Z,12.90
2022-11-26T12:02:32.168Z,13.00
2022-11-26T12:06:46.897Z,13.00
2022-11-26T12:10:38.077Z,12.90
2022-11-26T12:14:24.981Z,13.00
2022-11-26T12:18:31.610Z,13.00
2022-11-26T12:22:26.732Z,13.00
2022-11-26T12:26:27.830Z,13.00
2022-11-26T12:30:20.817Z,13.00
2022-11-26T12:34:30.725Z,12.90
2022-11-26T12:38:23.349Z,12.90
2022-11-26T12:42:25.695Z,13.00
2022-11-26T12:46:43.225Z,12.90
2022-11-26T12:50:44.323Z,12.90
2022-11-26T12:54:33.694Z,12.90
2022-11-26T12:58:34.788Z,12.90
2022-11-26T13:02:30.040Z,12.90
2022-11-26T13:06:30.441Z,12.90
2022-11-26T13:10:18.145Z,12.80
2022-11-26T13:14:02.969Z,12.90
2022-11-26T13:17:47.842Z,12.90
2022-11-26T13:21:50.893Z,12.90
2022-11-26T13:25:41.515Z,13.00
2022-11-26T13:29:26.133Z,12.90
2022-11-26T13:33:27.167Z,12.90
2022-11-26T13:37:15.195Z,12.90
2022-11-26T13:41:13.468Z,13.00
2022-11-26T13:45:03.141Z,12.90
2022-11-26T13:48:47.862Z,13.00
2022-11-26T13:53:01.397Z,13.00
2022-11-26T13:56:44.276Z,12.90
2022-11-26T14:00:29.299Z,12.90
2022-11-26T14:04:23.296Z,12.80
2022-11-26T14:08:41.310Z,12.80
2022-11-26T14:12:44.071Z,12.70
2022-11-26T14:17:00.921Z,12.70
2022-11-26T14:21:15.443Z,12.60
2022-11-26T14:25:21.970Z,12.60
2022-11-26T14:29:13.375Z,12.60
2022-11-26T14:33:14.331Z,12.50
2022-11-26T14:36:59.552Z,12.50
2022-11-26T14:40:41.526Z,12.50
2022-11-26T14:44:25.373Z,12.50
2022-11-26T14:48:19.918Z,12.30
2022-11-26T14:52:06.235Z,12.30
2022-11-26T14:55:48.773Z,12.40
2022-11-26T14:59:30.644Z,12.30
2022-11-26T15:03:26.219Z,12.30
2022-11-26T15:07:24.312Z,12.30
2022-11-26T15:11:07.764Z,12.20
2022-11-26T15:14:58.824Z,12.30
2022-11-26T15:18:40.615Z,12.20
2022-11-26T15:22:31.189Z,12.20
2022-11-26T15:26:18.825Z,12.10
2022-11-26T15:30:00.735Z,12.10
2022-11-26T15:33:43.515Z,12.10
2022-11-26T15:37:25.338Z,12.00
2022-11-26T15:41:13.261Z,12.00
2022-11-26T15:44:55.127Z,11.90
2022-11-26T15:48:52.345Z,12.00
2022-11-26T15:52:36.934Z,11.90
2022-11-26T15:56:22.094Z,11.90
2022-11-26T16:00:18.610Z,11.90
2022-11-26T16:04:04.664Z,11.80
2022-11-26T16:08:01.186Z,11.90
2022-11-26T16:11:57.148Z,11.90
2022-11-26T16:16:05.257Z,11.90
2022-11-26T16:19:59.121Z,11.90
2022-11-26T16:23:41.529Z,11.90
2022-11-26T16:27:23.174Z,11.90
2022-11-26T16:31:04.970Z,11.90
2022-11-26T16:34:46.776Z,12.00
2022-11-26T16:38:28.774Z,12.00
2022-11-26T16:42:21.541Z,12.00
2022-11-26T16:46:03.293Z,12.00
2022-11-26T16:49:45.114Z,12.00
2022-11-26T16:53:26.860Z,12.00
2022-11-26T16:57:18.953Z,12.10
2022-11-26T17:01:01.019Z,12.10
2022-11-26T17:04:43.442Z,12.10
2022-11-26T17:08:25.219Z,12.10
2022-11-26T17:12:15.840Z,12.20
2022-11-26T17:15:58.189Z,12.20
2022-11-26T17:19:41.800Z,12.20
2022-11-26T17:23:23.676Z,12.30
2022-11-26T17:27:11.627Z,12.20
2022-11-26T17:30:55.807Z,12.30
2022-11-26T17:34:37.689Z,12.40
2022-11-26T17:38:21.690Z,12.30
2022-11-26T17:42:03.649Z,12.30
2022-11-26T17:45:45.551Z,12.40
2022-11-26T17:49:27.319Z,12.40
2022-11-26T17:53:09.142Z,12.30
2022-11-26T17:56:50.889Z,12.40
2022-11-26T18:00:32.677Z,12.40
2022-11-26T18:04:14.721Z,12.40
2022-11-26T18:07:56.573Z,12.40
2022-11-26T18:11:51.734Z,12.40
2022-11-26T18:15:33.608Z,12.40
2022-11-26T18:19:18.236Z,12.40
2022-11-26T18:23:01.023Z,12.40
2022-11-26T18:26:43.483Z,12.40
2022-11-26T18:30:25.422Z,12.40
2022-11-26T18:34:07.596Z,12.50
2022-11-26T18:37:49.356Z,12.50
2022-11-26T18:41:31.767Z,12.50
2022-11-26T18:45:15.680Z,12.60
2022-11-26T18:48:58.386Z,12.50
2022-11-26T18:52:40.171Z,12.50
2022-11-26T18:56:23.255Z,12.50
2022-11-26T19:00:06.083Z,12.50
2022-11-26T19:03:48.413Z,12.50
2022-11-26T19:07:30.220Z,12.50
2022-11-26T19:11:20.422Z,12.50
2022-11-26T19:15:02.149Z,12.50
2022-11-26T19:18:45.244Z,12.50
2022-11-26T19:22:26.985Z,12.50
2022-11-26T19:26:08.713Z,12.50
2022-11-26T19:29:50.689Z,12.50
2022-11-26T19:33:33.351Z,12.60
2022-11-26T19:37:15.125Z,12.50
2022-11-26T19:41:00.637Z,12.60
2022-11-26T19:44:42.406Z,12.60
2022-11-26T19:48:24.107Z,12.50
2022-11-26T19:52:05.841Z,12.50
2022-11-26T19:56:02.546Z,12.60
2022-11-26T19:59:44.282Z,12.50
2022-11-26T20:03:26.414Z,12.50
2022-11-26T20:07:08.502Z,12.50
2022-11-26T20:10:50.369Z,12.40
2022-11-26T20:14:32.237Z,12.30
2022-11-26T20:18:15.483Z,12.20
2022-11-26T20:21:57.250Z,12.20
2022-11-26T20:25:38.978Z,12.10
2022-11-26T20:29:21.937Z,12.10
2022-11-26T20:33:03.713Z,12.00
2022-11-26T20:36:45.929Z,12.00
2022-11-26T20:40:27.670Z,12.00
2022-11-26T20:44:11.474Z,12.00
2022-11-26T20:47:53.210Z,12.00
2022-11-26T20:51:35.017Z,12.00
2022-11-26T20:55:18.155Z,12.00
2022-11-26T20:59:01.874Z,12.00
2022-11-26T21:02:47.776Z,12.10
2022-11-26T21:06:30.721Z,12.00
2022-11-26T21:10:14.558Z,11.90
2022-11-26T21:13:58.606Z,12.00
2022-11-26T21:17:40.456Z,12.00
2022-11-26T21:21:23.935Z,12.00
2022-11-26T21:25:05.925Z,12.00
2022-11-26T21:28:56.357Z,12.00
2022-11-26T21:32:38.057Z,12.10
2022-11-26T21:36:19.858Z,12.10
2022-11-26T21:40:01.673Z,12.20
2022-11-26T21:43:44.757Z,12.10
2022-11-26T21:47:26.484Z,12.10
2022-11-26T21:51:11.963Z,12.20
2022-11-26T21:54:53.751Z,12.30
2022-11-26T21:58:37.062Z,12.30
2022-11-26T22:02:18.825Z,12.20
2022-11-26T22:06:00.758Z,12.30
2022-11-26T22:09:42.601Z,12.40
2022-11-26T22:13:24.441Z,12.20
2022-11-26T22:17:06.177Z,12.40
2022-11-26T22:20:54.338Z,12.30
2022-11-26T22:24:36.081Z,12.40
2022-11-26T22:28:18.028Z,12.30
2022-11-26T22:31:59.975Z,12.40
2022-11-26T22:35:41.749Z,12.40
2022-11-26T22:39:23.674Z,12.30
2022-11-26T22:43:05.547Z,12.50
2022-11-26T22:46:47.302Z,12.50
2022-11-26T22:50:29.052Z,12.40
2022-11-26T22:54:12.994Z,12.50
2022-11-26T22:57:54.798Z,12.50
2022-11-26T23:01:37.537Z,12.50
2022-11-26T23:05:19.300Z,12.70
2022-11-26T23:09:03.369Z,12.50
2022-11-26T23:12:45.105Z,12.60
2022-11-26T23:16:27.439Z,12.70
2022-11-26T23:20:09.501Z,12.70
2022-11-26T23:23:51.772Z,12.60
2022-11-26T23:27:33.586Z,12.50
2022-11-26T23:31:18.178Z,12.60
2022-11-26T23:34:59.991Z,12.60
2022-11-26T23:38:42.027Z,12.80
2022-11-26T23:42:24.051Z,12.80
2022-11-26T23:46:08.473Z,12.80
2022-11-26T23:49:50.237Z,12.80
2022-11-26T23:53:32.155Z,12.70
2022-11-26T23:57:15.246Z,12.80
